Time;durP1;ratioP1;P1;durP2;ratioP2;P2;SDS_P1;SDS_P2;PMS_P1;PMS_P2;Temp;Humidity;BMP_temperature;BMP_pressure;BME280_temperature;BME280_humidity;BME280_pressure;Samples;Min_cycle;Max_cycle;Signal;HPM_P1;HPM_P2
2022/10/06 00:00:33;;;;;;;7.93;5.80;;;;;;;11.78;100.00;100748.94;4987927;28;20244;-67
2022/10/06 00:02:58;;;;;;;7.50;5.67;;;;;;;11.84;100.00;100759.84;5005453;28;20214;-66
2022/10/06 00:05:24;;;;;;;7.83;6.20;;;;;;;11.70;100.00;100751.03;4993508;28;20194;-67
2022/10/06 00:07:49;;;;;;;7.07;5.90;;;;;;;11.78;100.00;100759.25;4993597;28;20318;-66
2022/10/06 00:10:15;;;;;;;7.50;6.27;;;;;;;11.91;100.00;100767.19;4983800;28;20179;-67
2022/10/06 00:12:43;;;;;;;7.33;6.17;;;;;;;11.92;100.00;100771.44;4991821;28;20180;-66
2022/10/06 00:15:10;;;;;;;7.90;5.80;;;;;;;11.79;100.00;100766.06;4993218;28;20572;-67
2022/10/06 00:17:35;;;;;;;7.17;6.37;;;;;;;11.63;100.00;100768.56;4994038;28;20283;-66
2022/10/06 00:20:01;;;;;;;8.77;6.60;;;;;;;11.64;100.00;100774.53;4992784;28;20547;-66
2022/10/06 00:22:36;;;;;;;8.53;6.00;;;;;;;11.67;100.00;100781.28;4998328;28;20265;-67
2022/10/06 00:25:02;;;;;;;8.13;5.47;;;;;;;11.73;100.00;100783.56;4994426;28;20213;-66
2022/10/06 00:27:35;;;;;;;6.90;6.10;;;;;;;11.53;100.00;100790.50;4991524;28;20825;-66
2022/10/06 00:30:02;;;;;;;8.43;6.17;;;;;;;11.35;100.00;100783.63;4986441;28;20188;-67
2022/10/06 00:32:27;;;;;;;8.80;6.17;;;;;;;11.33;100.00;100790.63;4963179;28;20236;-67
2022/10/06 00:34:52;;;;;;;8.20;6.30;;;;;;;11.32;100.00;100801.81;4989448;28;20231;-68
2022/10/06 00:37:18;;;;;;;8.93;5.97;;;;;;;11.28;100.00;100801.13;4974333;28;20331;-67
2022/10/06 00:39:43;;;;;;;9.27;6.03;;;;;;;11.32;100.00;100810.38;4972925;28;20238;-67
2022/10/06 00:42:22;;;;;;;6.60;5.50;;;;;;;11.15;100.00;100816.31;4995658;28;20230;-68
2022/10/06 00:44:49;;;;;;;8.10;5.67;;;;;;;11.37;100.00;100815.31;4994148;28;20219;-67
2022/10/06 00:47:14;;;;;;;8.53;6.20;;;;;;;11.43;100.00;100830.47;4992273;28;20219;-71
2022/10/06 00:49:42;;;;;;;6.63;5.73;;;;;;;11.53;100.00;100836.03;4992222;28;20180;-66
2022/10/06 00:52:12;;;;;;;9.73;5.97;;;;;;;11.73;100.00;100833.38;4984441;28;20265;-67
2022/10/06 00:54:38;;;;;;;10.67;6.30;;;;;;;11.86;100.00;100827.63;4992979;28;20488;-67
2022/10/06 00:57:04;;;;;;;6.73;5.70;;;;;;;12.07;100.00;100824.03;4993004;28;20202;-67
2022/10/06 00:59:29;;;;;;;7.30;5.60;;;;;;;12.27;100.00;100819.63;4992802;28;20191;-66
2022/10/06 01:02:00;;;;;;;6.73;5.83;;;;;;;12.37;100.00;100820.00;4985410;28;20252;-67
2022/10/06 01:04:29;;;;;;;7.27;5.57;;;;;;;12.48;100.00;100816.84;4993005;28;20190;-67
2022/10/06 01:06:57;;;;;;;10.80;5.40;;;;;;;12.61;100.00;100817.91;4995225;28;20188;-66
2022/10/06 01:09:23;;;;;;;8.57;5.20;;;;;;;12.74;100.00;100813.78;4994191;28;20199;-67
2022/10/06 01:11:52;;;;;;;9.10;5.03;;;;;;;12.90;100.00;100810.41;4996499;28;20239;-66
2022/10/06 01:14:18;;;;;;;7.80;5.53;;;;;;;13.08;100.00;100814.59;4990376;28;20314;-68
2022/10/06 01:16:47;;;;;;;12.47;5.50;;;;;;;13.26;100.00;100826.56;4991711;28;20191;-66
2022/10/06 01:19:28;;;;;;;6.23;5.17;;;;;;;13.38;100.00;100834.53;4992504;28;20230;-67
2022/10/06 01:21:54;;;;;;;6.67;5.00;;;;;;;13.60;100.00;100830.75;4983421;28;20233;-67
2022/10/06 01:24:19;;;;;;;7.17;4.40;;;;;;;13.66;100.00;100833.00;4993372;28;20175;-67
2022/10/06 01:26:50;;;;;;;9.10;4.40;;;;;;;13.60;100.00;100837.69;4991773;28;20561;-67
2022/10/06 01:29:15;;;;;;;10.03;4.60;;;;;;;13.74;100.00;100839.50;4979581;28;20183;-67
2022/10/06 01:31:41;;;;;;;8.03;4.30;;;;;;;13.90;100.00;100852.41;4995699;28;20233;-68
2022/10/06 01:34:06;;;;;;;6.37;4.40;;;;;;;14.11;100.00;100852.94;4994809;28;20188;-67
2022/10/06 01:36:32;;;;;;;7.33;3.50;;;;;;;14.23;100.00;100859.13;4992053;28;20233;-66
2022/10/06 01:38:57;;;;;;;6.83;4.03;;;;;;;14.48;100.00;100867.16;4990951;28;20187;-66
2022/10/06 01:41:23;;;;;;;9.87;3.93;;;;;;;14.51;100.00;100877.34;4991946;28;20238;-67
2022/10/06 01:43:48;;;;;;;5.93;3.53;;;;;;;14.55;100.00;100878.00;4990958;28;20270;-68
2022/10/06 01:46:14;;;;;;;10.03;3.80;;;;;;;14.64;100.00;100876.59;5006544;28;20266;-66
2022/10/06 01:48:39;;;;;;;8.47;3.30;;;;;;;14.60;100.00;100896.66;4991188;28;20290;-66
2022/10/06 01:51:04;;;;;;;4.07;3.47;;;;;;;14.49;100.00;100894.69;4988677;28;20230;-66
2022/10/06 01:53:30;;;;;;;9.53;3.50;;;;;;;14.46;100.00;100901.81;4991152;28;20342;-66
2022/10/06 01:55:59;;;;;;;7.17;3.30;;;;;;;14.47;100.00;100911.25;4991987;28;20695;-66
2022/10/06 01:58:24;;;;;;;9.10;3.67;;;;;;;14.48;100.00;100911.16;4990294;28;20183;-67
2022/10/06 02:00:49;;;;;;;6.60;3.73;;;;;;;14.39;100.00;100906.53;4987950;28;20288;-67
2022/10/06 02:03:15;;;;;;;4.57;3.73;;;;;;;14.38;100.00;100910.03;4981088;28;20559;-66
2022/10/06 02:05:40;;;;;;;8.93;3.47;;;;;;;14.34;100.00;100911.13;4991535;28;20187;-68
2022/10/06 02:08:06;;;;;;;6.87;3.50;;;;;;;14.31;100.00;100906.97;4991023;28;20183;-66
2022/10/06 02:10:31;;;;;;;5.73;2.33;;;;;;;14.32;100.00;100900.03;4983337;28;20223;-67
2022/10/06 02:12:56;;;;;;;5.47;2.80;;;;;;;14.26;100.00;100906.38;4990905;28;20242;-66
2022/10/06 02:15:22;;;;;;;5.63;2.17;;;;;;;14.14;100.00;100904.47;4990756;28;20293;-66
2022/10/06 02:17:47;;;;;;;3.03;1.90;;;;;;;14.22;100.00;100898.91;4991755;28;20202;-66
2022/10/06 02:20:13;;;;;;;3.00;1.60;;;;;;;14.23;100.00;100905.72;4983331;28;20650;-67
2022/10/06 02:22:40;;;;;;;8.20;1.53;;;;;;;14.33;100.00;100906.88;4989390;28;20231;-67
2022/10/06 02:25:06;;;;;;;4.83;1.80;;;;;;;14.27;100.00;100907.22;4992046;28;20195;-66
2022/10/06 02:27:31;;;;;;;4.63;1.30;;;;;;;14.45;100.00;100908.75;4992286;28;20198;-67
2022/10/06 02:29:57;;;;;;;5.33;1.53;;;;;;;14.38;100.00;100914.38;4992601;28;20183;-69
2022/10/06 02:32:22;;;;;;;1.67;1.30;;;;;;;14.52;100.00;100929.94;4981334;28;20234;-66
2022/10/06 02:34:48;;;;;;;5.40;1.53;;;;;;;14.63;100.00;100934.50;4991513;28;20195;-67
2022/10/06 02:37:14;;;;;;;3.80;1.83;;;;;;;14.56;100.00;100940.94;4992690;28;20555;-67
2022/10/06 02:39:40;;;;;;;3.13;1.53;;;;;;;14.48;100.00;100949.97;4992747;28;20222;-67
2022/10/06 02:42:06;;;;;;;2.53;1.47;;;;;;;14.71;100.00;100950.44;4966829;28;20262;-66
2022/10/06 02:44:31;;;;;;;4.90;1.80;;;;;;;14.70;100.00;100948.78;4971012;28;20547;-66
2022/10/06 02:46:56;;;;;;;3.30;2.20;;;;;;;14.61;100.00;100954.44;4972709;28;20730;-66
2022/10/06 02:49:22;;;;;;;3.77;1.90;;;;;;;14.66;100.00;100971.44;4976262;28;20176;-66
2022/10/06 02:51:47;;;;;;;3.00;1.30;;;;;;;14.35;100.00;100973.16;4993545;28;20230;-66
2022/10/06 02:54:12;;;;;;;2.63;1.10;;;;;;;14.36;100.00;100981.72;5006530;28;20234;-66
2022/10/06 02:56:38;;;;;;;4.67;1.07;;;;;;;14.53;100.00;100993.72;4995814;28;20223;-67
2022/10/06 02:59:03;;;;;;;5.30;1.20;;;;;;;14.61;100.00;100995.88;4995056;28;20191;-67
2022/10/06 03:01:29;;;;;;;2.17;1.20;;;;;;;14.57;100.00;100991.81;4979068;28;21153;-66
2022/10/06 03:03:54;;;;;;;2.10;1.00;;;;;;;14.53;100.00;100988.56;4993754;28;20180;-67
2022/10/06 03:06:22;;;;;;;2.50;1.20;;;;;;;14.58;100.00;100988.28;4993496;28;20635;-67
2022/10/06 03:08:53;;;;;;;2.03;1.03;;;;;;;14.52;100.00;100992.06;4995375;28;20191;-67
2022/10/06 03:11:21;;;;;;;2.73;1.03;;;;;;;14.59;100.00;100990.78;5006318;28;20717;-67
2022/10/06 03:13:48;;;;;;;5.10;1.13;;;;;;;14.53;100.00;101001.50;4999765;28;20642;-67
2022/10/06 03:16:23;;;;;;;2.80;0.93;;;;;;;14.56;100.00;100997.91;4986080;28;20231;-67
2022/10/06 03:18:50;;;;;;;0.97;0.83;;;;;;;14.50;100.00;101006.88;4999866;28;20198;-66
2022/10/06 03:21:16;;;;;;;1.77;1.03;;;;;;;14.55;100.00;101016.94;4994501;28;20230;-67
2022/10/06 03:23:43;;;;;;;2.10;0.80;;;;;;;14.68;100.00;101013.59;5000994;28;20179;-67
2022/10/06 03:26:09;;;;;;;1.50;0.70;;;;;;;14.49;100.00;101026.72;4993920;28;20244;-67
2022/10/06 03:28:35;;;;;;;1.73;1.17;;;;;;;14.60;100.00;101033.91;4994546;28;20266;-67
2022/10/06 03:31:01;;;;;;;2.90;0.90;;;;;;;14.68;100.00;101043.84;4959311;28;20306;-67
2022/10/06 03:33:28;;;;;;;3.50;0.97;;;;;;;14.79;100.00;101035.47;4993479;28;20647;-67
2022/10/06 03:36:06;;;;;;;3.47;1.17;;;;;;;14.79;100.00;101048.41;4993174;28;20207;-67
2022/10/06 03:38:33;;;;;;;2.70;0.80;;;;;;;14.92;100.00;101053.72;4993179;28;20623;-66
2022/10/06 03:41:06;;;;;;;1.80;0.77;;;;;;;14.81;100.00;101052.59;4986418;28;20382;-67
2022/10/06 03:43:33;;;;;;;3.83;1.30;;;;;;;14.85;100.00;101058.44;4993376;28;20274;-67
2022/10/06 03:45:59;;;;;;;4.13;1.10;;;;;;;14.85;100.00;101063.59;4989495;28;20175;-67
2022/10/06 03:48:30;;;;;;;2.27;1.00;;;;;;;14.80;100.00;101068.22;4994025;28;20233;-67
2022/10/06 03:50:57;;;;;;;2.83;1.10;;;;;;;14.82;100.00;101071.53;4990411;28;20238;-67
2022/10/06 03:53:26;;;;;;;1.50;1.00;;;;;;;14.83;100.00;101075.81;4992558;28;20172;-67
2022/10/06 03:56:12;;;;;;;3.40;1.03;;;;;;;14.76;100.00;101079.66;4993274;28;20207;-67
2022/10/06 03:58:40;;;;;;;2.97;0.87;;;;;;;14.85;100.00;101077.38;4984201;28;20183;-68
2022/10/06 04:01:10;;;;;;;2.10;0.97;;;;;;;14.63;100.00;101087.25;5004133;28;20681;-67
2022/10/06 04:03:36;;;;;;;4.03;1.20;;;;;;;14.57;100.00;101085.00;4986618;28;20218;-67
2022/10/06 04:06:04;;;;;;;2.67;0.80;;;;;;;14.62;100.00;101091.59;4992163;28;20183;-67
2022/10/06 04:08:31;;;;;;;1.83;1.07;;;;;;;14.38;100.00;101098.16;4994204;28;20203;-68
2022/10/06 04:11:11;;;;;;;3.50;1.47;;;;;;;14.39;100.00;101099.78;4991379;28;20238;-66
2022/10/06 04:13:37;;;;;;;4.63;1.10;;;;;;;14.48;100.00;101107.88;4988743;28;20202;-66
2022/10/06 04:16:30;;;;;;;3.07;1.17;;;;;;;14.34;100.00;101113.00;4993547;28;20674;-66
2022/10/06 04:18:58;;;;;;;4.67;1.23;;;;;;;14.43;100.00;101112.50;4990128;28;20190;-66
2022/10/06 04:21:25;;;;;;;4.50;0.90;;;;;;;14.38;100.00;101118.84;4993765;28;20694;-67
2022/10/06 04:23:54;;;;;;;2.90;0.90;;;;;;;14.41;100.00;101122.09;4998642;28;20194;-68
2022/10/06 04:26:21;;;;;;;1.67;1.10;;;;;;;14.34;100.00;101134.53;4993496;28;20241;-67
2022/10/06 04:28:47;;;;;;;5.07;1.40;;;;;;;14.41;100.00;101141.97;4993194;28;20207;-67
2022/10/06 04:31:24;;;;;;;4.27;1.10;;;;;;;14.39;100.00;101138.63;4992924;28;20253;-67
2022/10/06 04:33:52;;;;;;;5.33;1.27;;;;;;;14.32;100.00;101145.88;4992323;28;20191;-67
2022/10/06 04:36:23;;;;;;;2.03;0.80;;;;;;;14.27;100.00;101140.94;4990282;28;20218;-67
2022/10/06 04:38:50;;;;;;;2.10;0.90;;;;;;;14.25;100.00;101135.03;4992651;28;20249;-68
2022/10/06 04:41:18;;;;;;;3.70;1.23;;;;;;;14.20;100.00;101137.88;4983532;28;20219;-67
2022/10/06 04:43:45;;;;;;;1.67;1.13;;;;;;;14.19;100.00;101159.47;4991239;28;20540;-67
2022/10/06 04:46:11;;;;;;;1.67;1.00;;;;;;;14.14;100.00;101152.88;4993281;28;20188;-67
2022/10/06 04:48:36;;;;;;;4.23;1.20;;;;;;;13.94;100.00;101154.78;4992822;28;20231;-67
2022/10/06 04:51:05;;;;;;;4.53;1.67;;;;;;;13.90;100.00;101163.56;4990090;28;20264;-67
2022/10/06 04:53:31;;;;;;;3.53;1.63;;;;;;;13.75;100.00;101166.97;5001016;28;20194;-68
2022/10/06 04:56:09;;;;;;;3.23;1.03;;;;;;;13.67;100.00;101175.13;4992040;28;20292;-71
2022/10/06 04:58:38;;;;;;;6.47;1.20;;;;;;;13.79;100.00;101177.09;4991983;28;20601;-67
2022/10/06 05:01:11;;;;;;;4.93;1.33;;;;;;;13.75;100.00;101178.13;4985263;28;20720;-68
2022/10/06 05:03:37;;;;;;;8.67;1.80;;;;;;;13.53;100.00;101176.63;4985922;28;20187;-66
2022/10/06 05:06:10;;;;;;;4.10;1.53;;;;;;;13.44;100.00;101181.44;4991322;28;20179;-67
2022/10/06 05:08:35;;;;;;;6.07;1.47;;;;;;;13.40;100.00;101186.72;4992002;28;20179;-67
2022/10/06 05:11:02;;;;;;;5.87;1.40;;;;;;;13.34;100.00;101194.75;4984942;28;20226;-68
2022/10/06 05:13:28;;;;;;;3.73;1.43;;;;;;;13.29;100.00;101195.91;4992102;28;20194;-67
2022/10/06 05:15:58;;;;;;;5.07;1.13;;;;;;;13.20;100.00;101200.59;4983737;28;20203;-67
2022/10/06 05:18:24;;;;;;;6.13;1.70;;;;;;;13.16;100.00;101204.25;4993176;28;20183;-67
2022/10/06 05:21:02;;;;;;;3.07;1.43;;;;;;;13.01;100.00;101210.97;4985410;28;20760;-68
2022/10/06 05:23:28;;;;;;;2.60;1.40;;;;;;;13.02;100.00;101212.66;4991477;28;20579;-68
2022/10/06 05:25:55;;;;;;;4.77;1.60;;;;;;;13.00;100.00;101222.22;4991493;28;20215;-69
2022/10/06 05:28:22;;;;;;;4.57;1.30;;;;;;;12.95;100.00;101228.47;4993647;28;20183;-68
2022/10/06 05:31:02;;;;;;;6.73;1.60;;;;;;;12.80;100.00;101227.44;4988951;28;20314;-68
2022/10/06 05:33:33;;;;;;;4.97;1.30;;;;;;;12.76;100.00;101234.50;4998943;28;20782;-68
2022/10/06 05:36:10;;;;;;;4.93;1.00;;;;;;;12.70;100.00;101238.22;4989996;28;20211;-68
2022/10/06 05:38:35;;;;;;;5.50;1.33;;;;;;;12.79;100.00;101242.13;4992112;28;20195;-68
2022/10/06 05:41:05;;;;;;;9.63;1.43;;;;;;;12.75;100.00;101243.13;4983582;28;20279;-68
2022/10/06 05:43:32;;;;;;;5.90;1.53;;;;;;;12.70;100.00;101253.69;4987361;28;20187;-68
2022/10/06 05:46:00;;;;;;;5.30;1.60;;;;;;;12.65;100.00;101263.41;4989055;28;20191;-69
2022/10/06 05:48:26;;;;;;;3.50;1.30;;;;;;;12.63;100.00;101261.75;4991921;28;20226;-68
2022/10/06 05:51:03;;;;;;;9.07;1.63;;;;;;;12.47;100.00;101270.19;4982721;28;20237;-68
2022/10/06 05:53:29;;;;;;;7.97;1.80;;;;;;;12.50;100.00;101272.66;4988921;28;20179;-68
2022/10/06 05:56:21;;;;;;;5.50;1.53;;;;;;;12.39;100.00;101273.13;4985943;28;20726;-68
2022/10/06 05:58:49;;;;;;;3.73;1.40;;;;;;;12.33;100.00;101280.28;4991329;28;20179;-67
2022/10/06 06:01:21;;;;;;;5.40;1.60;;;;;;;12.20;100.00;101288.53;4983031;28;20280;-67
2022/10/06 06:03:56;;;;;;;5.90;1.53;;;;;;;12.25;100.00;101288.34;4995176;28;20202;-73
2022/10/06 06:06:25;;;;;;;3.87;1.13;;;;;;;12.26;100.00;101297.75;4991560;28;20534;-68
2022/10/06 06:08:54;;;;;;;4.37;1.60;;;;;;;12.31;100.00;101300.16;4989189;28;20191;-68
2022/10/06 06:11:26;;;;;;;4.73;1.50;;;;;;;12.34;100.00;101300.88;4987690;28;20241;-68
2022/10/06 06:13:55;;;;;;;3.13;1.27;;;;;;;12.29;100.00;101295.03;4995598;28;20211;-68
2022/10/06 06:16:20;;;;;;;5.40;1.93;;;;;;;12.33;100.00;101314.66;4987118;28;20269;-68
2022/10/06 06:18:46;;;;;;;6.20;1.80;;;;;;;12.43;100.00;101315.13;4991083;28;20633;-68
2022/10/06 06:21:11;;;;;;;6.13;2.13;;;;;;;12.57;100.00;101322.25;4990355;28;20230;-68
2022/10/06 06:23:44;;;;;;;3.53;1.90;;;;;;;12.84;100.00;101333.13;5002012;28;20274;-68
2022/10/06 06:26:12;;;;;;;4.17;1.60;;;;;;;13.38;100.00;101333.28;4996012;28;20194;-67
2022/10/06 06:28:38;;;;;;;6.73;1.70;;;;;;;13.98;100.00;101324.41;4995358;28;20642;-68
2022/10/06 06:31:07;;;;;;;4.60;1.10;;;;;;;14.83;100.00;101330.50;4993328;28;20265;-68
2022/10/06 06:33:34;;;;;;;7.77;1.97;;;;;;;16.38;100.00;101329.69;4995018;28;20191;-67
2022/10/06 06:36:02;;;;;;;5.80;1.50;;;;;;;18.15;100.00;101342.13;4993558;28;20225;-69
2022/10/06 06:38:28;;;;;;;3.53;1.40;;;;;;;18.83;91.97;101343.53;4994457;28;20186;-69
2022/10/06 06:40:53;;;;;;;3.57;1.57;;;;;;;19.90;81.62;101358.66;4991970;28;20249;-68
2022/10/06 06:43:18;;;;;;;5.60;1.37;;;;;;;21.36;69.24;101364.03;4993920;28;20180;-68
2022/10/06 06:45:44;;;;;;;7.20;1.50;;;;;;;21.99;62.42;101373.81;4993515;28;20274;-67
2022/10/06 06:48:15;;;;;;;4.00;1.40;;;;;;;22.72;55.70;101384.31;4994263;28;20223;-67
2022/10/06 06:50:42;;;;;;;2.63;0.97;;;;;;;22.41;56.18;101392.16;4989855;28;20226;-67
2022/10/06 06:53:07;;;;;;;5.27;1.67;;;;;;;22.67;57.07;101394.38;5008074;28;20233;-68
2022/10/06 06:55:33;;;;;;;5.17;1.57;;;;;;;22.87;54.38;101397.88;5001705;28;20218;-68
2022/10/06 06:57:58;;;;;;;3.60;1.43;;;;;;;23.69;49.37;101401.25;4993423;28;20286;-68
2022/10/06 07:00:23;;;;;;;5.18;1.50;;;;;;;23.84;47.65;101410.38;4977362;28;20243;-68
2022/10/06 07:02:54;;;;;;;9.43;2.10;;;;;;;24.32;44.85;101411.34;4993976;28;20494;-67
2022/10/06 07:05:21;;;;;;;5.70;1.45;;;;;;;24.63;44.78;101418.16;4994071;28;20198;-68
2022/10/06 07:07:46;;;;;;;3.92;1.30;;;;;;;24.37;44.89;101423.22;4994168;28;20186;-68
2022/10/06 07:10:11;;;;;;;4.63;1.75;;;;;;;24.00;44.62;101419.53;4982637;28;20183;-68
2022/10/06 07:12:36;;;;;;;3.95;1.52;;;;;;;24.44;44.76;101427.75;4993676;28;20183;-69
2022/10/06 07:26:01;;;;;;;4.22;1.48;;;;;;;21.01;57.67;101443.53;4994499;28;20550;-76
2022/10/06 07:28:29;;;;;;;8.80;1.30;;;;;;;20.30;61.19;101452.31;4990085;28;20191;-77
2022/10/06 07:30:55;;;;;;;4.72;1.80;;;;;;;19.46;63.66;101454.84;4974214;28;20223;-78
2022/10/06 07:33:21;;;;;;;6.03;1.93;;;;;;;18.97;66.43;101462.53;5005126;28;20184;-73
2022/10/06 07:35:46;;;;;;;8.67;2.53;;;;;;;18.18;69.22;101459.94;4995067;28;20682;-73
2022/10/06 07:38:11;;;;;;;9.93;1.97;;;;;;;17.65;71.46;101456.34;4994680;28;20172;-72
2022/10/06 07:40:36;;;;;;;8.70;2.37;;;;;;;16.97;74.74;101458.75;4984073;28;20327;-72
2022/10/06 07:49:46;;;;;;;7.40;2.40;;;;;;;15.80;78.10;101473.97;4981663;28;20705;-63
2022/10/06 07:52:11;;;;;;;11.67;2.63;;;;;;;16.25;74.26;101474.97;4996382;28;20223;-66
2022/10/06 07:54:36;;;;;;;9.97;2.40;;;;;;;16.41;72.38;101479.28;4994682;28;20194;-64
2022/10/06 07:57:02;;;;;;;6.37;2.03;;;;;;;16.56;71.19;101493.13;4994179;28;20957;-64
2022/10/06 07:59:27;;;;;;;9.00;2.67;;;;;;;16.43;71.50;101490.41;4994999;28;20187;-63
2022/10/06 08:01:53;;;;;;;8.20;2.10;;;;;;;16.36;70.71;101491.69;4996131;28;20226;-64
2022/10/06 08:04:18;;;;;;;10.60;2.77;;;;;;;16.19;73.35;101488.28;4992530;28;20198;-66
2022/10/06 08:06:44;;;;;;;7.87;2.47;;;;;;;16.17;74.99;101497.09;4994401;28;20544;-64
2022/10/06 08:09:09;;;;;;;6.40;1.83;;;;;;;16.05;74.33;101506.38;4994304;28;20200;-63
2022/10/06 08:11:35;;;;;;;8.30;2.30;;;;;;;16.05;72.96;101507.22;4995771;28;20274;-63
2022/10/06 08:14:00;;;;;;;5.97;2.23;;;;;;;15.90;74.79;101511.50;4997132;28;20195;-63
2022/10/06 08:16:29;;;;;;;8.77;3.03;;;;;;;15.68;74.83;101516.13;4987763;28;20212;-64
2022/10/06 08:18:57;;;;;;;9.00;2.20;;;;;;;15.46;75.87;101523.28;4989859;28;20186;-63
2022/10/06 08:21:25;;;;;;;7.70;2.63;;;;;;;15.51;76.48;101527.44;4991863;28;20697;-63
2022/10/06 08:23:52;;;;;;;4.90;1.87;;;;;;;15.27;76.06;101528.63;4992804;28;20242;-63
2022/10/06 08:26:19;;;;;;;10.37;2.80;;;;;;;15.19;76.36;101528.16;4992414;28;20538;-63
2022/10/06 08:28:50;;;;;;;10.57;2.37;;;;;;;14.90;75.97;101535.66;4992227;28;20184;-64
2022/10/06 08:31:18;;;;;;;9.73;2.30;;;;;;;15.06;78.73;101529.69;4990445;28;20226;-62
2022/10/06 08:33:44;;;;;;;14.17;3.03;;;;;;;15.26;78.68;101528.69;4992433;28;20184;-63
2022/10/06 08:36:19;;;;;;;8.40;2.20;;;;;;;15.29;75.14;101529.38;4991752;28;20205;-62
2022/10/06 08:38:49;;;;;;;9.43;2.47;;;;;;;15.26;76.13;101532.13;4989258;28;20187;-72
2022/10/06 08:41:42;;;;;;;8.20;2.30;;;;;;;15.13;77.41;101528.47;4980716;28;20310;-64
2022/10/06 08:44:18;;;;;;;9.57;2.87;;;;;;;15.38;76.93;101529.81;4984997;28;20651;-63
2022/10/06 08:46:55;;;;;;;12.73;2.70;;;;;;;15.53;73.42;101541.13;4978527;28;20623;-64
2022/10/06 08:49:24;;;;;;;16.03;3.10;;;;;;;16.04;72.33;101546.22;4995229;28;20219;-64
2022/10/06 08:51:54;;;;;;;8.00;2.20;;;;;;;16.24;69.05;101539.97;4984519;28;20249;-64
2022/10/06 08:54:30;;;;;;;10.47;2.37;;;;;;;16.41;66.96;101549.38;4992458;28;20183;-65
2022/10/06 08:57:10;;;;;;;10.00;2.70;;;;;;;17.70;60.36;101548.81;4991525;28;20211;-63
2022/10/06 08:59:36;;;;;;;8.23;2.23;;;;;;;20.34;47.16;101552.22;4992351;28;20635;-62
2022/10/06 09:02:06;;;;;;;8.17;2.50;;;;;;;22.54;40.73;101557.97;4984978;28;20274;-62
2022/10/06 09:04:33;;;;;;;7.50;2.13;;;;;;;24.35;37.22;101552.22;4991971;28;20533;-62
2022/10/06 09:07:06;;;;;;;9.57;2.30;;;;;;;25.54;35.08;101557.06;4991644;28;20234;-62
2022/10/06 09:10:10;;;;;;;9.32;2.30;;;;;;;25.23;33.14;101567.00;4990939;28;20242;-62
2022/10/06 09:12:56;;;;;;;8.30;3.22;;;;;;;24.87;33.37;101569.47;4963547;28;20222;-63
2022/10/06 09:15:32;;;;;;;6.25;2.20;;;;;;;24.74;33.12;101575.03;4992132;28;20203;-61
2022/10/06 09:18:21;;;;;;;9.25;2.83;;;;;;;24.56;32.60;101575.72;4990732;28;20634;-63
2022/10/06 09:20:52;;;;;;;10.20;2.58;;;;;;;24.49;33.33;101577.25;4977622;28;20226;-63
2022/10/06 09:23:46;;;;;;;7.75;2.28;;;;;;;25.42;32.15;101579.31;4990157;28;20207;-62
2022/10/06 09:26:11;;;;;;;8.88;2.85;;;;;;;26.93;30.36;101578.78;4985461;28;20193;-63
2022/10/06 09:28:36;;;;;;;6.47;2.25;;;;;;;26.77;29.27;101579.50;4989601;28;20274;-62
2022/10/06 09:31:02;;;;;;;6.85;2.55;;;;;;;27.38;29.36;101583.78;4986018;28;20984;-63
2022/10/06 09:33:36;;;;;;;7.28;2.67;;;;;;;26.31;30.40;101585.72;4988309;28;20180;-69
2022/10/06 09:36:09;;;;;;;8.45;2.50;;;;;;;27.72;28.75;101589.25;4990234;28;20232;-69
2022/10/06 09:38:55;;;;;;;8.90;2.70;;;;;;;27.81;28.13;101588.25;4991514;28;20295;-68
2022/10/06 09:41:26;;;;;;;10.77;2.78;;;;;;;28.49;27.77;101591.69;4973256;28;20227;-68
2022/10/06 09:43:54;;;;;;;7.90;2.17;;;;;;;27.41;28.35;101595.06;4975890;28;20266;-70
2022/10/06 09:46:34;;;;;;;8.15;2.20;;;;;;;25.74;30.30;101591.22;4991248;28;20650;-70
2022/10/06 09:49:24;;;;;;;10.35;2.65;;;;;;;24.88;31.83;101600.06;4986013;28;20380;-71
2022/10/06 09:52:11;;;;;;;7.60;2.30;;;;;;;24.68;31.80;101589.56;4975279;28;20241;-71
2022/10/06 09:54:40;;;;;;;9.10;2.38;;;;;;;25.24;31.87;101589.72;4988235;28;20187;-73
2022/10/06 09:57:14;;;;;;;8.20;2.25;;;;;;;25.18;31.76;101590.31;4992834;28;20191;-73
2022/10/06 09:59:43;;;;;;;5.10;2.10;;;;;;;25.68;31.44;101586.53;4990977;28;20573;-73
2022/10/06 10:02:35;;;;;;;10.15;2.20;;;;;;;24.85;32.32;101582.78;4996453;28;20238;-74
2022/10/06 10:05:03;;;;;;;7.22;2.47;;;;;;;25.63;32.71;101581.69;4978158;28;20591;-74
2022/10/06 10:07:29;;;;;;;12.65;2.95;;;;;;;24.54;32.28;101582.09;4988312;28;20230;-71
2022/10/06 10:10:22;;;;;;;8.63;2.47;;;;;;;23.51;33.44;101582.31;4990355;28;20338;-73
2022/10/06 10:12:57;;;;;;;5.80;2.45;;;;;;;22.66;35.20;101578.91;4965829;28;20227;-74
2022/10/06 10:15:37;;;;;;;6.40;2.45;;;;;;;21.57;37.57;101587.50;4995278;28;20247;-67
2022/10/06 10:18:12;;;;;;;6.90;2.78;;;;;;;21.32;40.05;101579.84;4989796;28;20206;-69
2022/10/06 10:20:49;;;;;;;8.65;2.35;;;;;;;20.54;39.95;101585.56;4971514;28;20293;-68
2022/10/06 10:23:28;;;;;;;4.07;1.73;;;;;;;19.61;43.43;101575.59;4983165;28;20222;-69
2022/10/06 10:25:53;;;;;;;8.43;2.57;;;;;;;19.74;45.78;101571.19;4990492;28;20269;-71
2022/10/06 10:28:20;;;;;;;11.33;3.67;;;;;;;18.90;46.01;101575.13;4990456;28;20612;-68
2022/10/06 10:30:54;;;;;;;9.87;2.60;;;;;;;19.07;46.84;101574.88;4993929;28;20701;-72
2022/10/06 10:33:29;;;;;;;5.20;1.90;;;;;;;18.98;45.55;101580.72;4974645;28;20490;-70
2022/10/06 10:35:56;;;;;;;6.67;2.00;;;;;;;18.89;45.27;101579.53;4990597;28;20725;-71
2022/10/06 10:38:23;;;;;;;6.80;1.90;;;;;;;18.48;47.87;101580.44;4986469;28;21074;-67
2022/10/06 10:40:57;;;;;;;7.77;1.90;;;;;;;18.26;49.71;101580.97;4984670;28;20230;-68
2022/10/06 10:43:47;;;;;;;12.17;2.50;;;;;;;18.39;50.33;101579.28;4991052;28;20209;-69
2022/10/06 10:46:17;;;;;;;7.60;2.63;;;;;;;18.51;51.34;101585.47;4989890;28;20180;-62
2022/10/06 10:48:52;;;;;;;12.03;2.60;;;;;;;18.02;48.46;101584.22;4983039;28;20215;-63
2022/10/06 10:51:27;;;;;;;10.60;2.80;;;;;;;17.98;49.64;101582.75;4983661;28;20696;-64
2022/10/06 10:54:07;;;;;;;7.77;2.03;;;;;;;17.64;52.43;101580.41;4984437;28;20211;-63
2022/10/06 10:56:32;;;;;;;9.43;2.80;;;;;;;17.98;51.60;101578.34;4985570;28;20207;-63
2022/10/06 10:59:23;;;;;;;7.93;2.13;;;;;;;17.62;51.16;101579.66;4990443;28;20202;-63
2022/10/06 11:02:10;;;;;;;7.90;2.50;;;;;;;17.59;50.50;101577.25;4973582;28;20307;-63
2022/10/06 11:04:41;;;;;;;8.57;2.30;;;;;;;17.73;51.27;101582.44;4987967;28;20431;-63
2022/10/06 11:07:23;;;;;;;8.27;2.07;;;;;;;17.85;50.47;101574.81;4980422;28;20176;-62
2022/10/06 11:10:26;;;;;;;7.90;2.50;;;;;;;17.90;50.50;101576.19;4991313;28;20187;-62
2022/10/06 11:13:09;;;;;;;10.83;2.73;;;;;;;17.84;49.21;101573.97;4978898;28;20295;-63
2022/10/06 11:16:01;;;;;;;9.47;2.20;;;;;;;17.72;50.08;101569.53;4986169;28;20366;-64
2022/10/06 11:18:47;;;;;;;6.03;2.03;;;;;;;17.82;50.93;101569.81;4977839;28;20671;-63
2022/10/06 11:21:19;;;;;;;7.87;2.17;;;;;;;17.97;47.33;101578.47;4985664;28;20295;-62
2022/10/06 11:24:03;;;;;;;8.20;2.50;;;;;;;17.77;51.69;101575.28;4988273;28;20233;-64
2022/10/06 11:27:13;;;;;;;10.83;2.13;;;;;;;17.67;48.79;101566.38;4995594;28;20621;-64
2022/10/06 11:29:52;;;;;;;9.60;2.33;;;;;;;17.80;49.09;101564.69;4983912;28;20293;-62
2022/10/06 11:32:26;;;;;;;5.17;1.93;;;;;;;17.61;45.15;101571.97;4942245;28;20215;-64
2022/10/06 11:34:52;;;;;;;4.83;1.87;;;;;;;17.24;45.96;101573.25;4993370;28;20341;-62
2022/10/06 11:37:46;;;;;;;5.60;2.17;;;;;;;17.40;48.24;101569.72;4995052;28;20325;-62
2022/10/06 11:41:08;;;;;;;4.43;1.67;;;;;;;17.32;47.46;101566.75;4984650;28;20647;-62
2022/10/06 11:43:43;;;;;;;7.60;1.80;;;;;;;17.41;48.12;101555.78;4979374;28;20266;-67
2022/10/06 11:46:38;;;;;;;4.37;1.50;;;;;;;17.21;44.54;101556.97;4987298;28;20191;-63
2022/10/06 11:49:50;;;;;;;3.97;1.50;;;;;;;17.23;44.73;101550.75;4988975;28;20278;-64
2022/10/06 11:52:16;;;;;;;5.77;2.17;;;;;;;17.38;49.43;101546.41;4938638;28;20234;-65